sensor_id;sensor_type;location;lat;lon;timestamp;P1;durP1;ratioP1;P2;durP2;ratioP2
55833;SDS011;41761;43.004;-0.066;2022-10-30T00:00:06;26.85;;;12.68;;
55833;SDS011;41761;43.004;-0.066;2022-10-30T00:02:32;22.65;;;11.85;;
55833;SDS011;41761;43.004;-0.066;2022-10-30T00:04:58;33.30;;;13.23;;
55833;SDS011;41761;43.004;-0.066;2022-10-30T00:07:25;25.48;;;13.57;;
55833;SDS011;41761;43.004;-0.066;2022-10-30T00:09:51;22.13;;;12.35;;
55833;SDS011;41761;43.004;-0.066;2022-10-30T00:12:20;34.85;;;12.32;;
55833;SDS011;41761;43.004;-0.066;2022-10-30T00:14:46;20.40;;;11.95;;
55833;SDS011;41761;43.004;-0.066;2022-10-30T00:17:12;26.15;;;11.93;;
55833;SDS011;41761;43.004;-0.066;2022-10-30T00:19:39;34.83;;;12.50;;
55833;SDS011;41761;43.004;-0.066;2022-10-30T00:22:05;20.15;;;11.77;;
55833;SDS011;41761;43.004;-0.066;2022-10-30T00:24:31;27.17;;;11.85;;
55833;SDS011;41761;43.004;-0.066;2022-10-30T00:26:57;33.35;;;11.00;;
55833;SDS011;41761;43.004;-0.066;2022-10-30T00:29:24;28.73;;;11.13;;
55833;SDS011;41761;43.004;-0.066;2022-10-30T00:31:50;37.90;;;12.60;;
55833;SDS011;41761;43.004;-0.066;2022-10-30T00:34:17;27.65;;;12.52;;
55833;SDS011;41761;43.004;-0.066;2022-10-30T00:36:43;19.90;;;11.30;;
55833;SDS011;41761;43.004;-0.066;2022-10-30T00:39:10;22.00;;;10.88;;
55833;SDS011;41761;43.004;-0.066;2022-10-30T00:41:36;40.80;;;12.90;;
55833;SDS011;41761;43.004;-0.066;2022-10-30T00:46:50;21.98;;;11.95;;
55833;SDS011;41761;43.004;-0.066;2022-10-30T00:49:16;24.75;;;10.70;;
55833;SDS011;41761;43.004;-0.066;2022-10-30T00:51:47;25.67;;;10.98;;
55833;SDS011;41761;43.004;-0.066;2022-10-30T00:54:14;23.30;;;10.57;;
55833;SDS011;41761;43.004;-0.066;2022-10-30T00:56:41;22.23;;;10.45;;
55833;SDS011;41761;43.004;-0.066;2022-10-30T00:59:08;17.40;;;10.30;;
55833;SDS011;41761;43.004;-0.066;2022-10-30T01:01:37;28.85;;;11.05;;
55833;SDS011;41761;43.004;-0.066;2022-10-30T01:04:04;22.98;;;10.50;;
55833;SDS011;41761;43.004;-0.066;2022-10-30T01:06:35;18.38;;;9.65;;
55833;SDS011;41761;43.004;-0.066;2022-10-30T01:09:04;33.83;;;10.45;;
55833;SDS011;41761;43.004;-0.066;2022-10-30T01:11:30;26.02;;;10.98;;
55833;SDS011;41761;43.004;-0.066;2022-10-30T01:13:57;23.15;;;10.35;;
55833;SDS011;41761;43.004;-0.066;2022-10-30T01:19:37;27.13;;;10.50;;
55833;SDS011;41761;43.004;-0.066;2022-10-30T01:21:48;23.73;;;10.80;;
55833;SDS011;41761;43.004;-0.066;2022-10-30T01:30:08;23.13;;;9.88;;
55833;SDS011;41761;43.004;-0.066;2022-10-30T01:37:21;21.30;;;9.27;;
55833;SDS011;41761;43.004;-0.066;2022-10-30T01:39:50;10.85;;;7.60;;
55833;SDS011;41761;43.004;-0.066;2022-10-30T01:45:03;28.38;;;8.27;;
55833;SDS011;41761;43.004;-0.066;2022-10-30T01:47:33;16.90;;;9.13;;
55833;SDS011;41761;43.004;-0.066;2022-10-30T01:58:01;11.90;;;8.00;;
55833;SDS011;41761;43.004;-0.066;2022-10-30T02:00:31;17.65;;;7.78;;
55833;SDS011;41761;43.004;-0.066;2022-10-30T02:02:57;17.33;;;8.45;;
55833;SDS011;41761;43.004;-0.066;2022-10-30T02:05:29;19.25;;;7.53;;
55833;SDS011;41761;43.004;-0.066;2022-10-30T02:07:58;20.20;;;7.47;;
55833;SDS011;41761;43.004;-0.066;2022-10-30T02:10:24;25.55;;;8.88;;
55833;SDS011;41761;43.004;-0.066;2022-10-30T02:12:51;17.98;;;7.40;;
55833;SDS011;41761;43.004;-0.066;2022-10-30T02:15:19;13.65;;;7.82;;
55833;SDS011;41761;43.004;-0.066;2022-10-30T02:17:45;12.02;;;7.07;;
55833;SDS011;41761;43.004;-0.066;2022-10-30T02:20:13;15.38;;;6.75;;
55833;SDS011;41761;43.004;-0.066;2022-10-30T02:22:40;18.45;;;8.05;;
55833;SDS011;41761;43.004;-0.066;2022-10-30T02:25:06;21.15;;;7.43;;
55833;SDS011;41761;43.004;-0.066;2022-10-30T02:27:32;24.15;;;7.47;;
55833;SDS011;41761;43.004;-0.066;2022-10-30T02:29:58;26.83;;;7.05;;
55833;SDS011;41761;43.004;-0.066;2022-10-30T02:32:24;10.73;;;6.40;;
55833;SDS011;41761;43.004;-0.066;2022-10-30T02:34:51;7.05;;;5.55;;
55833;SDS011;41761;43.004;-0.066;2022-10-30T02:37:17;14.68;;;6.20;;
55833;SDS011;41761;43.004;-0.066;2022-10-30T02:39:43;13.90;;;5.78;;
55833;SDS011;41761;43.004;-0.066;2022-10-30T02:42:09;13.27;;;6.28;;
55833;SDS011;41761;43.004;-0.066;2022-10-30T02:44:36;22.00;;;6.55;;
55833;SDS011;41761;43.004;-0.066;2022-10-30T02:47:02;14.05;;;5.97;;
55833;SDS011;41761;43.004;-0.066;2022-10-30T02:49:28;14.43;;;6.43;;
55833;SDS011;41761;43.004;-0.066;2022-10-30T02:51:54;10.27;;;5.20;;
55833;SDS011;41761;43.004;-0.066;2022-10-30T02:54:21;8.70;;;5.72;;
55833;SDS011;41761;43.004;-0.066;2022-10-30T02:56:47;9.40;;;4.93;;
55833;SDS011;41761;43.004;-0.066;2022-10-30T02:59:13;12.05;;;4.80;;
55833;SDS011;41761;43.004;-0.066;2022-10-30T03:01:39;12.85;;;4.53;;
55833;SDS011;41761;43.004;-0.066;2022-10-30T03:04:05;8.20;;;4.57;;
55833;SDS011;41761;43.004;-0.066;2022-10-30T03:06:32;13.35;;;4.22;;
55833;SDS011;41761;43.004;-0.066;2022-10-30T03:08:58;11.32;;;5.50;;
55833;SDS011;41761;43.004;-0.066;2022-10-30T03:11:24;16.17;;;3.97;;
55833;SDS011;41761;43.004;-0.066;2022-10-30T03:13:50;23.25;;;5.38;;
55833;SDS011;41761;43.004;-0.066;2022-10-30T03:16:26;7.18;;;4.18;;
55833;SDS011;41761;43.004;-0.066;2022-10-30T03:18:53;8.45;;;4.70;;
55833;SDS011;41761;43.004;-0.066;2022-10-30T03:21:21;7.78;;;4.05;;
55833;SDS011;41761;43.004;-0.066;2022-10-30T03:23:50;7.78;;;4.50;;
55833;SDS011;41761;43.004;-0.066;2022-10-30T03:26:17;10.43;;;4.88;;
55833;SDS011;41761;43.004;-0.066;2022-10-30T03:28:43;11.23;;;4.15;;
55833;SDS011;41761;43.004;-0.066;2022-10-30T03:31:11;8.45;;;4.35;;
55833;SDS011;41761;43.004;-0.066;2022-10-30T03:33:37;11.05;;;4.68;;
55833;SDS011;41761;43.004;-0.066;2022-10-30T03:36:04;12.85;;;4.55;;
55833;SDS011;41761;43.004;-0.066;2022-10-30T03:38:31;10.93;;;4.07;;
55833;SDS011;41761;43.004;-0.066;2022-10-30T03:40:57;18.30;;;5.53;;
55833;SDS011;41761;43.004;-0.066;2022-10-30T03:43:24;6.50;;;4.18;;
55833;SDS011;41761;43.004;-0.066;2022-10-30T03:45:52;7.50;;;4.28;;
55833;SDS011;41761;43.004;-0.066;2022-10-30T03:48:19;11.20;;;5.13;;
55833;SDS011;41761;43.004;-0.066;2022-10-30T03:50:45;6.43;;;4.40;;
55833;SDS011;41761;43.004;-0.066;2022-10-30T03:53:12;8.02;;;4.75;;
55833;SDS011;41761;43.004;-0.066;2022-10-30T03:55:38;8.90;;;4.63;;
55833;SDS011;41761;43.004;-0.066;2022-10-30T03:58:05;12.00;;;4.50;;
55833;SDS011;41761;43.004;-0.066;2022-10-30T04:00:32;7.75;;;3.80;;
55833;SDS011;41761;43.004;-0.066;2022-10-30T04:02:58;20.30;;;4.30;;
55833;SDS011;41761;43.004;-0.066;2022-10-30T04:05:25;6.93;;;4.00;;
55833;SDS011;41761;43.004;-0.066;2022-10-30T04:07:59;6.95;;;4.15;;
55833;SDS011;41761;43.004;-0.066;2022-10-30T04:12:51;7.75;;;3.88;;
55833;SDS011;41761;43.004;-0.066;2022-10-30T04:15:18;15.05;;;4.68;;
55833;SDS011;41761;43.004;-0.066;2022-10-30T04:17:49;10.65;;;3.63;;
55833;SDS011;41761;43.004;-0.066;2022-10-30T04:20:16;15.82;;;4.68;;
55833;SDS011;41761;43.004;-0.066;2022-10-30T04:22:42;13.98;;;4.18;;
55833;SDS011;41761;43.004;-0.066;2022-10-30T04:25:08;13.68;;;4.82;;
55833;SDS011;41761;43.004;-0.066;2022-10-30T04:27:41;6.43;;;4.13;;
55833;SDS011;41761;43.004;-0.066;2022-10-30T04:30:08;5.72;;;4.20;;
55833;SDS011;41761;43.004;-0.066;2022-10-30T04:32:34;5.15;;;3.80;;
55833;SDS011;41761;43.004;-0.066;2022-10-30T04:35:00;6.32;;;4.30;;
55833;SDS011;41761;43.004;-0.066;2022-10-30T04:37:28;8.65;;;3.85;;
55833;SDS011;41761;43.004;-0.066;2022-10-30T04:39:54;6.90;;;4.18;;
55833;SDS011;41761;43.004;-0.066;2022-10-30T04:42:20;6.55;;;3.65;;
55833;SDS011;41761;43.004;-0.066;2022-10-30T04:44:47;9.02;;;4.72;;
55833;SDS011;41761;43.004;-0.066;2022-10-30T04:47:13;8.88;;;4.25;;
55833;SDS011;41761;43.004;-0.066;2022-10-30T04:49:41;15.70;;;4.78;;
55833;SDS011;41761;43.004;-0.066;2022-10-30T04:52:07;6.75;;;4.25;;
55833;SDS011;41761;43.004;-0.066;2022-10-30T04:54:33;7.80;;;4.00;;
55833;SDS011;41761;43.004;-0.066;2022-10-30T04:56:59;9.68;;;3.83;;
55833;SDS011;41761;43.004;-0.066;2022-10-30T04:59:26;9.45;;;4.60;;
55833;SDS011;41761;43.004;-0.066;2022-10-30T05:01:52;4.13;;;2.85;;
55833;SDS011;41761;43.004;-0.066;2022-10-30T05:04:18;9.90;;;4.43;;
55833;SDS011;41761;43.004;-0.066;2022-10-30T05:06:47;11.70;;;3.97;;
55833;SDS011;41761;43.004;-0.066;2022-10-30T05:09:13;5.72;;;4.25;;
55833;SDS011;41761;43.004;-0.066;2022-10-30T05:11:39;11.23;;;3.85;;
55833;SDS011;41761;43.004;-0.066;2022-10-30T05:14:05;7.50;;;3.30;;
55833;SDS011;41761;43.004;-0.066;2022-10-30T05:16:32;8.63;;;3.42;;
55833;SDS011;41761;43.004;-0.066;2022-10-30T05:18:58;9.70;;;3.97;;
55833;SDS011;41761;43.004;-0.066;2022-10-30T05:21:24;10.15;;;3.65;;
55833;SDS011;41761;43.004;-0.066;2022-10-30T05:23:50;5.35;;;3.75;;
55833;SDS011;41761;43.004;-0.066;2022-10-30T05:26:17;8.02;;;3.60;;
55833;SDS011;41761;43.004;-0.066;2022-10-30T05:28:43;5.13;;;3.17;;
55833;SDS011;41761;43.004;-0.066;2022-10-30T05:31:09;7.60;;;3.15;;
55833;SDS011;41761;43.004;-0.066;2022-10-30T05:33:35;9.88;;;3.83;;
55833;SDS011;41761;43.004;-0.066;2022-10-30T05:36:02;9.57;;;3.40;;
55833;SDS011;41761;43.004;-0.066;2022-10-30T05:38:28;8.27;;;2.80;;
55833;SDS011;41761;43.004;-0.066;2022-10-30T05:40:54;7.32;;;2.92;;
55833;SDS011;41761;43.004;-0.066;2022-10-30T05:43:20;3.85;;;3.17;;
55833;SDS011;41761;43.004;-0.066;2022-10-30T05:45:50;9.05;;;2.97;;
55833;SDS011;41761;43.004;-0.066;2022-10-30T05:48:16;9.73;;;3.13;;
55833;SDS011;41761;43.004;-0.066;2022-10-30T05:50:42;9.60;;;3.78;;
55833;SDS011;41761;43.004;-0.066;2022-10-30T05:53:09;11.45;;;3.45;;
55833;SDS011;41761;43.004;-0.066;2022-10-30T05:55:35;9.05;;;2.60;;
55833;SDS011;41761;43.004;-0.066;2022-10-30T05:58:03;9.55;;;3.50;;
55833;SDS011;41761;43.004;-0.066;2022-10-30T06:00:30;34.38;;;3.92;;
55833;SDS011;41761;43.004;-0.066;2022-10-30T06:03:00;28.75;;;4.55;;
55833;SDS011;41761;43.004;-0.066;2022-10-30T06:05:28;9.98;;;3.10;;
55833;SDS011;41761;43.004;-0.066;2022-10-30T06:07:54;11.63;;;2.70;;
55833;SDS011;41761;43.004;-0.066;2022-10-30T06:10:21;15.07;;;2.92;;
55833;SDS011;41761;43.004;-0.066;2022-10-30T06:12:51;10.90;;;3.65;;
55833;SDS011;41761;43.004;-0.066;2022-10-30T06:15:18;20.13;;;3.60;;
55833;SDS011;41761;43.004;-0.066;2022-10-30T06:17:44;5.55;;;2.55;;
55833;SDS011;41761;43.004;-0.066;2022-10-30T06:20:10;7.47;;;3.03;;
55833;SDS011;41761;43.004;-0.066;2022-10-30T06:22:36;5.90;;;3.10;;
55833;SDS011;41761;43.004;-0.066;2022-10-30T06:25:02;7.10;;;3.00;;
55833;SDS011;41761;43.004;-0.066;2022-10-30T06:27:29;8.63;;;3.22;;
55833;SDS011;41761;43.004;-0.066;2022-10-30T06:29:55;4.35;;;2.97;;
55833;SDS011;41761;43.004;-0.066;2022-10-30T06:32:21;6.95;;;2.80;;
55833;SDS011;41761;43.004;-0.066;2022-10-30T06:34:47;4.55;;;2.72;;
55833;SDS011;41761;43.004;-0.066;2022-10-30T06:37:14;11.65;;;3.50;;
55833;SDS011;41761;43.004;-0.066;2022-10-30T06:39:40;10.77;;;4.05;;
55833;SDS011;41761;43.004;-0.066;2022-10-30T06:42:06;19.30;;;4.47;;
55833;SDS011;41761;43.004;-0.066;2022-10-30T06:44:33;14.00;;;4.22;;
55833;SDS011;41761;43.004;-0.066;2022-10-30T06:46:59;13.60;;;4.20;;
55833;SDS011;41761;43.004;-0.066;2022-10-30T06:49:25;16.55;;;4.03;;
55833;SDS011;41761;43.004;-0.066;2022-10-30T06:51:54;17.23;;;3.47;;
55833;SDS011;41761;43.004;-0.066;2022-10-30T06:54:20;13.27;;;3.47;;
55833;SDS011;41761;43.004;-0.066;2022-10-30T06:56:50;19.75;;;4.25;;
55833;SDS011;41761;43.004;-0.066;2022-10-30T06:59:16;27.88;;;4.60;;
55833;SDS011;41761;43.004;-0.066;2022-10-30T07:01:42;20.60;;;3.88;;
55833;SDS011;41761;43.004;-0.066;2022-10-30T07:04:08;22.63;;;4.07;;
55833;SDS011;41761;43.004;-0.066;2022-10-30T07:06:35;12.63;;;4.40;;
55833;SDS011;41761;43.004;-0.066;2022-10-30T07:09:01;16.48;;;3.70;;
55833;SDS011;41761;43.004;-0.066;2022-10-30T07:11:27;11.00;;;4.40;;
55833;SDS011;41761;43.004;-0.066;2022-10-30T07:13:54;6.75;;;3.33;;
55833;SDS011;41761;43.004;-0.066;2022-10-30T07:16:20;8.23;;;3.47;;
55833;SDS011;41761;43.004;-0.066;2022-10-30T07:18:46;12.50;;;4.00;;
55833;SDS011;41761;43.004;-0.066;2022-10-30T07:21:12;16.73;;;4.15;;
55833;SDS011;41761;43.004;-0.066;2022-10-30T07:23:39;15.77;;;3.70;;
55833;SDS011;41761;43.004;-0.066;2022-10-30T07:26:05;9.52;;;3.70;;
55833;SDS011;41761;43.004;-0.066;2022-10-30T07:28:32;13.75;;;4.78;;
55833;SDS011;41761;43.004;-0.066;2022-10-30T07:30:58;10.90;;;4.10;;
55833;SDS011;41761;43.004;-0.066;2022-10-30T07:33:24;21.05;;;5.57;;
55833;SDS011;41761;43.004;-0.066;2022-10-30T07:35:51;16.92;;;4.38;;
55833;SDS011;41761;43.004;-0.066;2022-10-30T07:38:17;19.20;;;3.58;;
55833;SDS011;41761;43.004;-0.066;2022-10-30T07:40:43;11.68;;;4.75;;
55833;SDS011;41761;43.004;-0.066;2022-10-30T07:43:10;14.23;;;5.38;;
55833;SDS011;41761;43.004;-0.066;2022-10-30T07:45:37;14.23;;;4.72;;
55833;SDS011;41761;43.004;-0.066;2022-10-30T07:48:04;31.15;;;5.43;;
55833;SDS011;41761;43.004;-0.066;2022-10-30T07:50:30;23.35;;;4.88;;
55833;SDS011;41761;43.004;-0.066;2022-10-30T07:52:57;15.52;;;4.93;;
55833;SDS011;41761;43.004;-0.066;2022-10-30T07:55:23;22.08;;;4.75;;
55833;SDS011;41761;43.004;-0.066;2022-10-30T07:57:49;13.00;;;4.60;;
55833;SDS011;41761;43.004;-0.066;2022-10-30T08:00:16;12.73;;;4.97;;
55833;SDS011;41761;43.004;-0.066;2022-10-30T08:02:42;14.55;;;5.10;;
55833;SDS011;41761;43.004;-0.066;2022-10-30T08:05:08;26.85;;;4.97;;
55833;SDS011;41761;43.004;-0.066;2022-10-30T08:07:35;17.10;;;5.63;;
55833;SDS011;41761;43.004;-0.066;2022-10-30T08:10:02;29.95;;;4.78;;
55833;SDS011;41761;43.004;-0.066;2022-10-30T08:12:30;16.40;;;5.50;;
55833;SDS011;41761;43.004;-0.066;2022-10-30T08:14:57;12.40;;;3.80;;
55833;SDS011;41761;43.004;-0.066;2022-10-30T08:17:26;21.13;;;4.25;;
55833;SDS011;41761;43.004;-0.066;2022-10-30T08:19:52;11.77;;;4.07;;
55833;SDS011;41761;43.004;-0.066;2022-10-30T08:22:19;15.98;;;5.10;;
55833;SDS011;41761;43.004;-0.066;2022-10-30T08:24:45;13.45;;;4.18;;
55833;SDS011;41761;43.004;-0.066;2022-10-30T08:27:12;23.80;;;4.53;;
55833;SDS011;41761;43.004;-0.066;2022-10-30T08:29:38;19.42;;;4.97;;
55833;SDS011;41761;43.004;-0.066;2022-10-30T08:32:05;14.73;;;4.32;;
55833;SDS011;41761;43.004;-0.066;2022-10-30T08:34:31;21.85;;;4.43;;
55833;SDS011;41761;43.004;-0.066;2022-10-30T08:36:59;24.92;;;4.53;;
55833;SDS011;41761;43.004;-0.066;2022-10-30T08:39:25;19.15;;;4.47;;
55833;SDS011;41761;43.004;-0.066;2022-10-30T08:41:51;19.42;;;4.68;;
55833;SDS011;41761;43.004;-0.066;2022-10-30T08:44:18;16.63;;;4.22;;
55833;SDS011;41761;43.004;-0.066;2022-10-30T08:46:44;17.50;;;4.38;;
55833;SDS011;41761;43.004;-0.066;2022-10-30T08:49:10;12.80;;;3.85;;
55833;SDS011;41761;43.004;-0.066;2022-10-30T08:51:36;11.32;;;3.97;;
55833;SDS011;41761;43.004;-0.066;2022-10-30T08:54:02;12.05;;;4.28;;
55833;SDS011;41761;43.004;-0.066;2022-10-30T08:56:29;11.52;;;4.38;;
55833;SDS011;41761;43.004;-0.066;2022-10-30T08:58:55;14.50;;;4.07;;
55833;SDS011;41761;43.004;-0.066;2022-10-30T09:01:21;14.38;;;4.45;;
55833;SDS011;41761;43.004;-0.066;2022-10-30T09:03:47;17.55;;;4.70;;
55833;SDS011;41761;43.004;-0.066;2022-10-30T09:06:13;17.63;;;4.32;;
55833;SDS011;41761;43.004;-0.066;2022-10-30T09:08:40;9.10;;;5.03;;
55833;SDS011;41761;43.004;-0.066;2022-10-30T09:11:06;15.55;;;4.10;;
55833;SDS011;41761;43.004;-0.066;2022-10-30T09:13:32;14.10;;;4.78;;
55833;SDS011;41761;43.004;-0.066;2022-10-30T09:15:59;14.23;;;4.20;;
55833;SDS011;41761;43.004;-0.066;2022-10-30T09:18:26;17.73;;;4.20;;
55833;SDS011;41761;43.004;-0.066;2022-10-30T09:20:52;15.10;;;4.00;;
55833;SDS011;41761;43.004;-0.066;2022-10-30T09:23:18;22.17;;;4.85;;
55833;SDS011;41761;43.004;-0.066;2022-10-30T09:25:44;18.95;;;4.60;;
55833;SDS011;41761;43.004;-0.066;2022-10-30T09:28:11;12.75;;;3.88;;
55833;SDS011;41761;43.004;-0.066;2022-10-30T09:30:37;14.85;;;4.60;;
55833;SDS011;41761;43.004;-0.066;2022-10-30T09:33:03;13.35;;;4.30;;
55833;SDS011;41761;43.004;-0.066;2022-10-30T09:35:29;18.95;;;4.65;;
55833;SDS011;41761;43.004;-0.066;2022-10-30T09:37:56;21.40;;;4.88;;
55833;SDS011;41761;43.004;-0.066;2022-10-30T09:51:20;15.85;;;4.28;;
55833;SDS011;41761;43.004;-0.066;2022-10-30T09:56:24;18.70;;;4.95;;
55833;SDS011;41761;43.004;-0.066;2022-10-30T10:01:26;18.80;;;4.72;;
55833;SDS011;41761;43.004;-0.066;2022-10-30T10:06:25;13.90;;;4.88;;
55833;SDS011;41761;43.004;-0.066;2022-10-30T10:09:00;22.05;;;4.95;;
55833;SDS011;41761;43.004;-0.066;2022-10-30T10:11:28;17.48;;;5.38;;
55833;SDS011;41761;43.004;-0.066;2022-10-30T10:14:00;17.85;;;4.63;;
55833;SDS011;41761;43.004;-0.066;2022-10-30T10:16:30;29.25;;;5.40;;
55833;SDS011;41761;43.004;-0.066;2022-10-30T10:19:01;21.00;;;5.65;;
55833;SDS011;41761;43.004;-0.066;2022-10-30T10:21:32;15.10;;;4.85;;
55833;SDS011;41761;43.004;-0.066;2022-10-30T10:24:01;23.20;;;5.70;;
55833;SDS011;41761;43.004;-0.066;2022-10-30T10:34:10;15.80;;;6.00;;
55833;SDS011;41761;43.004;-0.066;2022-10-30T10:39:14;17.25;;;5.05;;
55833;SDS011;41761;43.004;-0.066;2022-10-30T10:44:17;14.18;;;4.68;;
55833;SDS011;41761;43.004;-0.066;2022-10-30T10:47:04;20.77;;;5.30;;
55833;SDS011;41761;43.004;-0.066;2022-10-30T10:54:55;18.05;;;5.47;;
55833;SDS011;41761;43.004;-0.066;2022-10-30T10:59:55;23.58;;;5.38;;
55833;SDS011;41761;43.004;-0.066;2022-10-30T11:02:27;13.63;;;4.78;;
55833;SDS011;41761;43.004;-0.066;2022-10-30T11:04:55;9.70;;;4.90;;
55833;SDS011;41761;43.004;-0.066;2022-10-30T11:07:23;24.27;;;6.13;;
55833;SDS011;41761;43.004;-0.066;2022-10-30T11:09:50;25.77;;;6.22;;
55833;SDS011;41761;43.004;-0.066;2022-10-30T11:12:21;11.20;;;4.85;;
55833;SDS011;41761;43.004;-0.066;2022-10-30T11:14:49;20.75;;;5.60;;
55833;SDS011;41761;43.004;-0.066;2022-10-30T11:19:45;18.40;;;6.53;;
55833;SDS011;41761;43.004;-0.066;2022-10-30T11:22:32;17.50;;;5.80;;
55833;SDS011;41761;43.004;-0.066;2022-10-30T11:27:44;19.23;;;6.35;;
55833;SDS011;41761;43.004;-0.066;2022-10-30T11:30:18;24.42;;;5.38;;
55833;SDS011;41761;43.004;-0.066;2022-10-30T11:32:45;23.60;;;6.47;;
55833;SDS011;41761;43.004;-0.066;2022-10-30T11:35:13;16.33;;;5.53;;
55833;SDS011;41761;43.004;-0.066;2022-10-30T11:37:41;16.90;;;6.03;;
55833;SDS011;41761;43.004;-0.066;2022-10-30T11:42:44;20.67;;;6.63;;
55833;SDS011;41761;43.004;-0.066;2022-10-30T11:45:18;24.65;;;6.28;;
55833;SDS011;41761;43.004;-0.066;2022-10-30T11:47:45;19.73;;;6.50;;
55833;SDS011;41761;43.004;-0.066;2022-10-30T11:50:25;20.95;;;6.00;;
55833;SDS011;41761;43.004;-0.066;2022-10-30T11:52:54;14.85;;;5.70;;
55833;SDS011;41761;43.004;-0.066;2022-10-30T11:57:51;18.83;;;5.57;;
55833;SDS011;41761;43.004;-0.066;2022-10-30T12:02:44;18.67;;;5.25;;
55833;SDS011;41761;43.004;-0.066;2022-10-30T12:07:53;13.27;;;4.93;;
55833;SDS011;41761;43.004;-0.066;2022-10-30T12:10:24;19.30;;;5.43;;
55833;SDS011;41761;43.004;-0.066;2022-10-30T12:12:50;30.70;;;5.38;;
55833;SDS011;41761;43.004;-0.066;2022-10-30T12:15:17;12.85;;;4.97;;
55833;SDS011;41761;43.004;-0.066;2022-10-30T12:17:54;17.45;;;5.30;;
55833;SDS011;41761;43.004;-0.066;2022-10-30T12:20:23;16.98;;;5.15;;
55833;SDS011;41761;43.004;-0.066;2022-10-30T12:22:50;19.50;;;5.68;;
55833;SDS011;41761;43.004;-0.066;2022-10-30T12:25:21;22.95;;;6.25;;
55833;SDS011;41761;43.004;-0.066;2022-10-30T12:27:48;21.30;;;6.05;;
55833;SDS011;41761;43.004;-0.066;2022-10-30T12:30:16;15.85;;;5.20;;
55833;SDS011;41761;43.004;-0.066;2022-10-30T12:37:57;23.90;;;5.60;;
55833;SDS011;41761;43.004;-0.066;2022-10-30T12:40:27;15.02;;;5.25;;
55833;SDS011;41761;43.004;-0.066;2022-10-30T12:43:02;19.50;;;5.32;;
55833;SDS011;41761;43.004;-0.066;2022-10-30T12:45:40;17.27;;;5.78;;
55833;SDS011;41761;43.004;-0.066;2022-10-30T12:48:21;23.83;;;5.53;;
55833;SDS011;41761;43.004;-0.066;2022-10-30T12:51:06;19.25;;;5.15;;
55833;SDS011;41761;43.004;-0.066;2022-10-30T12:53:41;23.00;;;5.03;;
55833;SDS011;41761;43.004;-0.066;2022-10-30T12:58:45;17.05;;;5.25;;
55833;SDS011;41761;43.004;-0.066;2022-10-30T13:04:11;17.10;;;5.35;;
55833;SDS011;41761;43.004;-0.066;2022-10-30T13:12:14;19.10;;;4.93;;
55833;SDS011;41761;43.004;-0.066;2022-10-30T13:14:58;18.67;;;4.88;;
55833;SDS011;41761;43.004;-0.066;2022-10-30T13:17:26;21.58;;;5.03;;
55833;SDS011;41761;43.004;-0.066;2022-10-30T13:19:55;20.40;;;5.53;;
55833;SDS011;41761;43.004;-0.066;2022-10-30T13:22:26;10.85;;;4.63;;
55833;SDS011;41761;43.004;-0.066;2022-10-30T13:40:30;13.80;;;4.55;;
55833;SDS011;41761;43.004;-0.066;2022-10-30T13:51:07;12.05;;;5.45;;
55833;SDS011;41761;43.004;-0.066;2022-10-30T13:53:36;14.85;;;5.25;;
55833;SDS011;41761;43.004;-0.066;2022-10-30T13:56:04;22.92;;;4.22;;
55833;SDS011;41761;43.004;-0.066;2022-10-30T13:58:33;10.65;;;4.05;;
55833;SDS011;41761;43.004;-0.066;2022-10-30T14:01:15;4.32;;;2.75;;
55833;SDS011;41761;43.004;-0.066;2022-10-30T14:03:45;11.00;;;3.42;;
55833;SDS011;41761;43.004;-0.066;2022-10-30T14:06:32;11.98;;;4.40;;
55833;SDS011;41761;43.004;-0.066;2022-10-30T14:09:05;17.65;;;4.50;;
55833;SDS011;41761;43.004;-0.066;2022-10-30T14:11:34;13.57;;;4.85;;
55833;SDS011;41761;43.004;-0.066;2022-10-30T14:14:43;21.02;;;4.82;;
55833;SDS011;41761;43.004;-0.066;2022-10-30T14:22:27;15.50;;;3.70;;
55833;SDS011;41761;43.004;-0.066;2022-10-30T14:24:53;15.57;;;4.68;;
55833;SDS011;41761;43.004;-0.066;2022-10-30T14:27:20;13.60;;;4.93;;
55833;SDS011;41761;43.004;-0.066;2022-10-30T14:29:51;24.83;;;5.40;;
55833;SDS011;41761;43.004;-0.066;2022-10-30T14:37:17;18.58;;;4.80;;
55833;SDS011;41761;43.004;-0.066;2022-10-30T14:42:51;15.70;;;5.55;;
55833;SDS011;41761;43.004;-0.066;2022-10-30T14:45:26;31.95;;;5.20;;
55833;SDS011;41761;43.004;-0.066;2022-10-30T14:48:11;47.15;;;5.15;;
55833;SDS011;41761;43.004;-0.066;2022-10-30T14:58:32;17.55;;;4.82;;
55833;SDS011;41761;43.004;-0.066;2022-10-30T15:06:15;23.45;;;4.97;;
55833;SDS011;41761;43.004;-0.066;2022-10-30T15:08:50;16.63;;;4.97;;
55833;SDS011;41761;43.004;-0.066;2022-10-30T15:14:39;21.25;;;5.55;;
55833;SDS011;41761;43.004;-0.066;2022-10-30T15:16:45;15.10;;;4.75;;
55833;SDS011;41761;43.004;-0.066;2022-10-30T15:19:14;15.50;;;5.28;;
55833;SDS011;41761;43.004;-0.066;2022-10-30T15:21:41;16.20;;;4.53;;
55833;SDS011;41761;43.004;-0.066;2022-10-30T15:24:15;24.25;;;5.30;;
55833;SDS011;41761;43.004;-0.066;2022-10-30T15:26:43;20.38;;;5.57;;
55833;SDS011;41761;43.004;-0.066;2022-10-30T15:29:31;20.17;;;5.47;;
55833;SDS011;41761;43.004;-0.066;2022-10-30T15:31:59;9.57;;;4.90;;
55833;SDS011;41761;43.004;-0.066;2022-10-30T15:34:26;18.05;;;5.80;;
55833;SDS011;41761;43.004;-0.066;2022-10-30T15:36:53;14.32;;;5.22;;
55833;SDS011;41761;43.004;-0.066;2022-10-30T15:39:19;22.15;;;6.10;;
55833;SDS011;41761;43.004;-0.066;2022-10-30T15:41:53;23.13;;;6.43;;
55833;SDS011;41761;43.004;-0.066;2022-10-30T15:44:29;22.05;;;5.88;;
55833;SDS011;41761;43.004;-0.066;2022-10-30T15:46:57;15.15;;;6.32;;
55833;SDS011;41761;43.004;-0.066;2022-10-30T15:51:54;17.20;;;5.28;;
55833;SDS011;41761;43.004;-0.066;2022-10-30T15:54:20;16.42;;;5.13;;
55833;SDS011;41761;43.004;-0.066;2022-10-30T15:56:47;16.42;;;5.93;;
55833;SDS011;41761;43.004;-0.066;2022-10-30T15:59:21;19.73;;;6.30;;
55833;SDS011;41761;43.004;-0.066;2022-10-30T16:01:48;19.25;;;6.45;;
55833;SDS011;41761;43.004;-0.066;2022-10-30T16:04:15;22.00;;;5.88;;
55833;SDS011;41761;43.004;-0.066;2022-10-30T16:06:55;22.83;;;6.68;;
55833;SDS011;41761;43.004;-0.066;2022-10-30T16:09:22;23.13;;;5.90;;
55833;SDS011;41761;43.004;-0.066;2022-10-30T16:11:49;16.27;;;6.03;;
55833;SDS011;41761;43.004;-0.066;2022-10-30T16:14:26;18.05;;;5.47;;
55833;SDS011;41761;43.004;-0.066;2022-10-30T16:16:53;61.53;;;24.63;;
55833;SDS011;41761;43.004;-0.066;2022-10-30T16:19:23;58.85;;;17.70;;
55833;SDS011;41761;43.004;-0.066;2022-10-30T16:21:51;70.03;;;22.70;;
55833;SDS011;41761;43.004;-0.066;2022-10-30T16:24:18;67.13;;;22.25;;
55833;SDS011;41761;43.004;-0.066;2022-10-30T16:26:59;83.65;;;31.17;;
55833;SDS011;41761;43.004;-0.066;2022-10-30T16:29:26;113.15;;;47.40;;
55833;SDS011;41761;43.004;-0.066;2022-10-30T16:31:52;56.60;;;21.30;;
55833;SDS011;41761;43.004;-0.066;2022-10-30T16:34:24;59.53;;;18.05;;
55833;SDS011;41761;43.004;-0.066;2022-10-30T16:36:51;38.88;;;14.40;;
55833;SDS011;41761;43.004;-0.066;2022-10-30T16:39:17;24.13;;;7.95;;
55833;SDS011;41761;43.004;-0.066;2022-10-30T16:41:44;19.40;;;7.03;;
55833;SDS011;41761;43.004;-0.066;2022-10-30T16:49:07;24.73;;;8.02;;
55833;SDS011;41761;43.004;-0.066;2022-10-30T16:51:38;32.85;;;12.88;;
55833;SDS011;41761;43.004;-0.066;2022-10-30T16:54:05;31.25;;;11.27;;
55833;SDS011;41761;43.004;-0.066;2022-10-30T16:56:32;33.22;;;10.93;;
55833;SDS011;41761;43.004;-0.066;2022-10-30T16:59:34;28.73;;;11.18;;
55833;SDS011;41761;43.004;-0.066;2022-10-30T17:01:56;22.13;;;10.60;;
55833;SDS011;41761;43.004;-0.066;2022-10-30T17:04:24;33.43;;;10.73;;
55833;SDS011;41761;43.004;-0.066;2022-10-30T17:07:02;26.13;;;11.77;;